createdAt,value
2022-10-11T00:02:07.484Z,1.60
2022-10-11T00:04:35.382Z,1.47
2022-10-11T00:07:03.440Z,1.10
2022-10-11T00:09:31.716Z,1.90
2022-10-11T00:11:59.581Z,1.20
2022-10-11T00:14:28.469Z,1.50
2022-10-11T00:16:56.324Z,1.50
2022-10-11T00:19:25.476Z,1.20
2022-10-11T00:21:53.577Z,1.30
2022-10-11T00:24:21.396Z,1.33
2022-10-11T00:26:49.218Z,1.30
2022-10-11T00:29:17.042Z,1.50
2022-10-11T00:31:44.906Z,1.47
2022-10-11T00:34:13.281Z,1.27
2022-10-11T00:36:42.465Z,1.37
2022-10-11T00:39:10.273Z,1.27
2022-10-11T00:41:38.167Z,1.40
2022-10-11T00:44:15.553Z,1.50
2022-10-11T00:46:45.749Z,1.43
2022-10-11T00:49:20.580Z,1.53
2022-10-11T00:51:54.177Z,1.20
2022-10-11T00:54:26.621Z,1.20
2022-10-11T00:56:59.967Z,1.10
2022-10-11T00:59:30.930Z,1.40
2022-10-11T01:01:59.025Z,1.40
2022-10-11T01:04:26.864Z,1.50
2022-10-11T01:06:56.698Z,1.13
2022-10-11T01:09:24.842Z,1.47
2022-10-11T01:11:57.167Z,1.30
2022-10-11T01:14:50.941Z,1.20
2022-10-11T01:17:27.409Z,1.70
2022-10-11T01:20:12.484Z,1.30
2022-10-11T01:23:05.368Z,1.03
2022-10-11T01:25:40.634Z,1.40
2022-10-11T01:28:35.463Z,1.50
2022-10-11T01:31:12.288Z,1.70
2022-10-11T01:33:46.350Z,1.80
2022-10-11T01:36:27.669Z,1.00
2022-10-11T01:39:00.385Z,1.20
2022-10-11T01:41:31.309Z,1.40
2022-10-11T01:44:01.721Z,1.53
2022-10-11T01:46:32.256Z,1.57
2022-10-11T01:49:02.540Z,1.37
2022-10-11T01:51:33.718Z,1.30
2022-10-11T01:54:14.641Z,1.23
2022-10-11T01:57:01.966Z,1.53
2022-10-11T01:59:44.672Z,1.97
2022-10-11T02:02:28.296Z,1.50
2022-10-11T02:05:00.804Z,2.00
2022-10-11T02:07:36.184Z,1.40
2022-10-11T02:10:11.847Z,1.17
2022-10-11T02:12:44.029Z,1.30
2022-10-11T02:15:15.165Z,1.30
2022-10-11T02:17:48.854Z,1.40
2022-10-11T02:20:20.465Z,1.40
2022-10-11T02:22:52.333Z,1.60
2022-10-11T02:25:25.717Z,1.70
2022-10-11T02:27:57.900Z,0.97
2022-10-11T02:30:25.847Z,1.30
2022-10-11T02:32:55.562Z,1.30
2022-10-11T02:35:27.643Z,1.33
2022-10-11T02:38:05.430Z,1.23
2022-10-11T02:40:36.300Z,1.67
2022-10-11T02:43:06.488Z,1.83
2022-10-11T02:45:39.300Z,1.37
2022-10-11T02:48:11.818Z,1.43
2022-10-11T02:50:41.221Z,1.33
2022-10-11T02:53:09.778Z,1.30
2022-10-11T02:55:37.996Z,1.07
2022-10-11T02:58:05.886Z,1.43
2022-10-11T03:00:33.746Z,1.27
2022-10-11T03:03:01.560Z,1.43
2022-10-11T03:05:30.726Z,1.53
2022-10-11T03:07:58.544Z,1.30
2022-10-11T03:10:26.383Z,1.83
2022-10-11T03:12:54.208Z,1.20
2022-10-11T03:15:22.058Z,1.20
2022-10-11T03:17:50.473Z,1.57
2022-10-11T03:20:18.399Z,1.30
2022-10-11T03:22:47.562Z,1.30
2022-10-11T03:25:15.395Z,1.93
2022-10-11T03:27:43.290Z,1.50
2022-10-11T03:30:17.307Z,1.57
2022-10-11T03:32:46.156Z,1.27
2022-10-11T03:35:14.477Z,1.23
2022-10-11T03:37:42.328Z,1.50
2022-10-11T03:40:13.446Z,1.07
2022-10-11T03:42:41.419Z,1.27
2022-10-11T03:45:10.244Z,1.53
2022-10-11T03:47:39.331Z,1.67
2022-10-11T03:50:08.843Z,1.50
2022-10-11T03:52:36.753Z,1.80
2022-10-11T03:55:06.407Z,1.63
2022-10-11T03:57:35.656Z,1.40
2022-10-11T04:00:03.557Z,1.20
2022-10-11T04:02:33.686Z,1.33
2022-10-11T04:05:05.943Z,1.60
2022-10-11T04:07:34.310Z,1.00
2022-10-11T04:10:02.134Z,1.50
2022-10-11T04:12:30.003Z,1.20
2022-10-11T04:14:59.288Z,1.30
2022-10-11T04:17:27.150Z,1.50
2022-10-11T04:19:54.985Z,1.53
2022-10-11T04:22:22.818Z,1.97
2022-10-11T04:24:50.659Z,1.47
2022-10-11T04:27:18.477Z,1.47
2022-10-11T04:29:46.286Z,1.47
2022-10-11T04:32:15.442Z,1.57
2022-10-11T04:34:43.740Z,1.40
2022-10-11T04:37:11.630Z,1.50
2022-10-11T04:39:39.720Z,1.70
2022-10-11T04:42:07.571Z,1.70
2022-10-11T04:44:35.537Z,1.63
2022-10-11T04:47:03.349Z,1.50
2022-10-11T04:49:32.526Z,1.50
2022-10-11T04:52:00.354Z,1.60
2022-10-11T04:54:28.437Z,1.50
2022-10-11T04:56:56.360Z,1.53
2022-10-11T04:59:24.192Z,2.00
2022-10-11T05:01:52.037Z,1.53
2022-10-11T05:04:19.926Z,1.50
2022-10-11T05:06:49.079Z,1.90
2022-10-11T05:09:16.972Z,1.43
2022-10-11T05:11:44.815Z,1.40
2022-10-11T05:14:12.695Z,1.43
2022-10-11T05:16:40.592Z,1.80
2022-10-11T05:19:08.530Z,1.40
2022-10-11T05:21:36.354Z,1.27
2022-10-11T05:24:06.061Z,1.60
2022-10-11T05:26:33.907Z,1.33
2022-10-11T05:29:01.779Z,1.40
2022-10-11T05:31:29.691Z,1.63
2022-10-11T05:33:57.516Z,1.70
2022-10-11T05:36:25.351Z,1.63
2022-10-11T05:38:53.201Z,1.20
2022-10-11T05:41:22.510Z,1.20
2022-10-11T05:43:50.324Z,1.97
2022-10-11T05:46:18.164Z,1.73
2022-10-11T05:48:46.005Z,1.67
2022-10-11T05:51:14.231Z,1.67
2022-10-11T05:53:42.274Z,1.50
2022-10-11T05:56:20.397Z,1.60
2022-10-11T05:58:49.775Z,1.50
2022-10-11T06:01:19.975Z,1.60
2022-10-11T06:03:48.096Z,1.73
2022-10-11T06:06:16.664Z,1.37
2022-10-11T06:08:44.541Z,1.40
2022-10-11T06:11:16.712Z,1.50
2022-10-11T06:13:44.812Z,1.60
2022-10-11T06:16:14.505Z,1.33
2022-10-11T06:18:42.504Z,1.53
2022-10-11T06:21:10.447Z,1.30
2022-10-11T06:23:38.269Z,1.53
2022-10-11T06:26:08.714Z,1.73
2022-10-11T06:28:38.641Z,1.60
2022-10-11T06:31:07.217Z,1.63
2022-10-11T06:33:37.425Z,1.53
2022-10-11T06:36:08.565Z,1.70
2022-10-11T06:38:39.790Z,1.60
2022-10-11T06:41:11.748Z,1.60
2022-10-11T06:43:39.684Z,1.33
2022-10-11T06:46:08.324Z,1.80
2022-10-11T06:48:41.271Z,1.40
2022-10-11T06:51:09.138Z,1.57
2022-10-11T06:53:36.942Z,1.60
2022-10-11T06:56:05.668Z,1.60
2022-10-11T06:58:34.306Z,1.63
2022-10-11T07:01:02.526Z,1.80
2022-10-11T07:03:30.692Z,1.20
2022-10-11T07:06:03.036Z,1.53
2022-10-11T07:08:31.223Z,1.67
2022-10-11T07:11:02.113Z,1.60
2022-10-11T07:13:29.982Z,1.20
2022-10-11T07:15:57.983Z,1.90
2022-10-11T07:18:25.800Z,1.73
2022-10-11T07:20:53.643Z,1.30
2022-10-11T07:23:23.682Z,1.60
2022-10-11T07:25:54.409Z,1.70
2022-10-11T07:28:22.677Z,1.37
2022-10-11T07:30:50.910Z,1.40
2022-10-11T07:33:19.188Z,1.30
2022-10-11T07:35:48.582Z,1.73
2022-10-11T07:38:17.366Z,1.97
2022-10-11T07:40:47.716Z,1.53
2022-10-11T07:43:15.919Z,1.60
2022-10-11T07:45:45.384Z,1.43
2022-10-11T07:48:13.246Z,1.77
2022-10-11T07:50:41.035Z,1.53
2022-10-11T07:53:09.734Z,1.73
2022-10-11T07:55:40.192Z,1.83
2022-10-11T07:58:10.748Z,1.60
2022-10-11T08:00:39.998Z,1.43
2022-10-11T08:03:08.256Z,1.77
2022-10-11T08:05:37.898Z,1.67
2022-10-11T08:08:06.337Z,1.60
2022-10-11T08:10:39.136Z,1.60
2022-10-11T08:13:07.643Z,1.50
2022-10-11T08:15:37.101Z,1.90
2022-10-11T08:18:05.133Z,1.70
2022-10-11T08:20:33.132Z,2.07
2022-10-11T08:23:01.015Z,1.63
2022-10-11T08:25:28.951Z,1.80
2022-10-11T08:27:56.804Z,1.50
2022-10-11T08:30:24.784Z,1.40
2022-10-11T08:32:53.959Z,1.70
2022-10-11T08:35:21.873Z,1.87
2022-10-11T08:37:49.703Z,1.53
2022-10-11T08:40:19.159Z,1.90
2022-10-11T08:42:53.144Z,1.90
2022-10-11T08:45:30.237Z,2.00
2022-10-11T08:48:09.473Z,1.77
2022-10-11T08:50:38.640Z,1.80
2022-10-11T08:53:14.548Z,2.53
2022-10-11T08:55:45.723Z,1.67
2022-10-11T08:58:17.073Z,1.57
2022-10-11T09:00:48.309Z,1.60
2022-10-11T09:03:27.494Z,1.60
2022-10-11T09:06:08.616Z,1.70
2022-10-11T09:08:57.550Z,1.50
2022-10-11T09:11:35.616Z,1.80
2022-10-11T09:14:20.479Z,1.67
2022-10-11T09:17:01.704Z,1.97
2022-10-11T09:20:03.921Z,1.63
2022-10-11T09:22:42.545Z,1.90
2022-10-11T09:25:24.097Z,1.80
2022-10-11T09:28:04.118Z,1.60
2022-10-11T09:30:33.502Z,1.77
2022-10-11T09:33:11.848Z,1.60
2022-10-11T09:35:43.925Z,1.50
2022-10-11T09:38:22.689Z,1.70
2022-10-11T09:41:01.564Z,1.63
2022-10-11T09:43:29.512Z,1.70
2022-10-11T09:45:57.341Z,2.20
2022-10-11T09:48:29.579Z,1.23
2022-10-11T09:51:05.658Z,1.90
2022-10-11T09:53:57.091Z,1.40
2022-10-11T09:56:27.200Z,1.77
2022-10-11T09:59:10.252Z,1.70
2022-10-11T10:01:38.265Z,1.80
2022-10-11T10:04:11.515Z,1.60
2022-10-11T10:06:42.366Z,1.50
2022-10-11T10:09:23.010Z,1.70
2022-10-11T10:11:50.961Z,1.50
2022-10-11T10:14:22.623Z,1.60
2022-10-11T10:17:00.508Z,1.80
2022-10-11T10:19:29.165Z,1.50
2022-10-11T10:21:58.709Z,1.63
2022-10-11T10:24:37.740Z,2.00
2022-10-11T10:27:18.035Z,1.80
2022-10-11T10:30:02.832Z,1.50
2022-10-11T10:32:36.892Z,1.63
2022-10-11T10:35:13.334Z,2.07
2022-10-11T10:37:46.815Z,1.87
2022-10-11T10:40:19.639Z,1.40
2022-10-11T10:42:47.524Z,1.47
2022-10-11T10:45:21.530Z,1.97
2022-10-11T10:48:06.707Z,1.60
2022-10-11T10:50:49.714Z,1.83
2022-10-11T10:53:29.944Z,1.80
2022-10-11T10:56:06.688Z,2.10
2022-10-11T10:58:51.820Z,2.20
2022-10-11T11:01:24.275Z,1.60
2022-10-11T11:03:58.620Z,2.60
2022-10-11T11:06:35.709Z,1.83
2022-10-11T11:09:19.701Z,2.10
2022-10-11T11:11:59.054Z,2.40
2022-10-11T11:14:40.252Z,2.00
2022-10-11T11:17:16.644Z,1.90
2022-10-11T11:19:59.252Z,1.97
2022-10-11T11:22:41.208Z,1.83
2022-10-11T11:25:25.549Z,1.63
2022-10-11T11:28:06.446Z,1.97
2022-10-11T11:30:45.224Z,2.00
2022-10-11T11:33:21.279Z,1.80
2022-10-11T11:35:53.004Z,1.60
2022-10-11T11:38:29.678Z,1.87
2022-10-11T11:41:02.382Z,1.50
2022-10-11T11:43:35.256Z,1.83
2022-10-11T11:46:10.228Z,2.00
2022-10-11T11:48:39.352Z,2.20
2022-10-11T11:51:13.437Z,2.43
2022-10-11T11:53:53.628Z,1.90
2022-10-11T11:56:32.773Z,2.13
2022-10-11T11:59:15.336Z,1.63
2022-10-11T12:01:50.590Z,2.00
2022-10-11T12:04:25.808Z,2.20
2022-10-11T12:07:16.052Z,1.90
2022-10-11T12:09:50.326Z,2.30
2022-10-11T12:12:31.621Z,2.27
2022-10-11T12:15:19.602Z,2.23
2022-10-11T12:18:04.192Z,2.20
2022-10-11T12:20:35.800Z,1.63
2022-10-11T12:23:06.527Z,1.77
2022-10-11T12:25:41.835Z,2.07
2022-10-11T12:29:01.597Z,1.60
2022-10-11T12:31:32.587Z,1.70
2022-10-11T12:34:32.069Z,1.70
2022-10-11T12:37:03.249Z,2.10
2022-10-11T12:39:52.618Z,1.63
2022-10-11T12:42:29.904Z,2.23
2022-10-11T12:45:25.679Z,1.77
2022-10-11T12:48:03.171Z,1.70
2022-10-11T12:50:40.175Z,1.93
2022-10-11T12:53:23.153Z,2.20
2022-10-11T12:56:01.985Z,1.40
2022-10-11T12:58:38.324Z,1.80
2022-10-11T13:01:24.729Z,2.30
2022-10-11T13:04:01.070Z,1.63
2022-10-11T13:06:32.137Z,1.70
2022-10-11T13:09:05.712Z,2.10
2022-10-11T13:11:36.679Z,2.10
2022-10-11T13:14:09.604Z,1.83
2022-10-11T13:16:50.131Z,1.63
2022-10-11T13:19:23.738Z,1.90
2022-10-11T13:21:55.345Z,1.73
2022-10-11T13:24:24.235Z,2.27
2022-10-11T13:26:55.492Z,2.10
2022-10-11T13:29:32.355Z,2.00
2022-10-11T13:32:00.948Z,1.83
2022-10-11T13:34:35.155Z,2.07
2022-10-11T13:37:03.433Z,1.80
2022-10-11T13:39:35.030Z,1.90
2022-10-11T13:42:05.520Z,1.70
2022-10-11T13:44:35.350Z,2.20
2022-10-11T13:47:03.661Z,2.03
2022-10-11T13:49:39.055Z,2.33
2022-10-11T13:52:19.954Z,1.90
2022-10-11T13:55:00.287Z,1.83
2022-10-11T13:57:38.622Z,1.93
2022-10-11T14:00:25.945Z,2.20
2022-10-11T14:02:58.046Z,1.80
2022-10-11T14:05:31.582Z,1.80
2022-10-11T14:08:02.303Z,1.93
2022-10-11T14:10:30.807Z,1.70
2022-10-11T14:13:01.700Z,2.10
2022-10-11T14:15:31.970Z,2.20
2022-10-11T14:18:01.259Z,2.20
2022-10-11T14:20:38.711Z,1.90
2022-10-11T14:23:07.110Z,2.30
2022-10-11T14:25:35.487Z,2.13
2022-10-11T14:28:05.640Z,2.07
2022-10-11T14:30:33.764Z,1.90
2022-10-11T14:33:03.153Z,2.30
2022-10-11T14:35:32.838Z,2.13
2022-10-11T14:38:02.217Z,1.77
2022-10-11T14:40:31.887Z,1.97
2022-10-11T14:42:59.908Z,1.87
2022-10-11T14:45:27.866Z,2.00
2022-10-11T14:47:57.367Z,1.93
2022-10-11T14:50:33.420Z,1.90
2022-10-11T14:53:02.985Z,1.80
2022-10-11T14:55:31.657Z,1.90
2022-10-11T14:57:59.840Z,1.97
2022-10-11T15:00:30.623Z,1.80
2022-10-11T15:02:58.711Z,1.90
2022-10-11T15:05:33.643Z,1.70
2022-10-11T15:08:03.650Z,1.67
2022-10-11T15:10:35.446Z,2.07
2022-10-11T15:13:04.597Z,1.60
2022-10-11T15:15:35.451Z,2.17
2022-10-11T15:18:04.438Z,2.10
2022-10-11T15:20:35.009Z,1.83
2022-10-11T15:23:04.469Z,1.83
2022-10-11T15:25:32.414Z,2.23
2022-10-11T15:28:00.418Z,2.00
2022-10-11T15:30:30.275Z,2.27
2022-10-11T15:32:58.521Z,1.90
2022-10-11T15:35:27.806Z,1.70
2022-10-11T15:37:57.218Z,2.13
2022-10-11T15:40:29.293Z,1.77
2022-10-11T15:42:57.299Z,1.80
2022-10-11T15:45:25.575Z,1.73
2022-10-11T15:47:53.700Z,1.70
2022-10-11T15:50:34.780Z,2.23
2022-10-11T15:53:03.749Z,1.83
2022-10-11T15:55:34.105Z,2.30
2022-10-11T15:58:02.474Z,1.60
2022-10-11T16:00:30.968Z,1.77
2022-10-11T16:03:00.098Z,2.20
2022-10-11T16:05:29.011Z,2.07
2022-10-11T16:07:56.848Z,2.20
2022-10-11T16:10:24.687Z,1.50
2022-10-11T16:12:53.962Z,1.83
2022-10-11T16:15:21.786Z,1.90
2022-10-11T16:17:50.261Z,1.80
2022-10-11T16:20:22.140Z,1.83
2022-10-11T16:22:50.966Z,2.20
2022-10-11T16:25:19.484Z,2.07
2022-10-11T16:27:47.378Z,1.87
2022-10-11T16:30:19.079Z,1.73
2022-10-11T16:32:46.975Z,2.17
2022-10-11T16:35:16.367Z,1.83
2022-10-11T16:37:45.161Z,1.70
2022-10-11T16:40:15.793Z,2.03
2022-10-11T16:42:43.997Z,1.80
2022-10-11T16:45:12.446Z,2.33
2022-10-11T16:47:42.274Z,2.17
2022-10-11T16:50:11.479Z,2.10
2022-10-11T16:52:39.301Z,1.70
2022-10-11T16:55:07.910Z,1.73
2022-10-11T16:57:37.708Z,2.00
2022-10-11T17:00:07.401Z,1.70
2022-10-11T17:02:35.703Z,2.57
2022-10-11T17:05:05.612Z,2.33
2022-10-11T17:07:33.480Z,1.90
2022-10-11T17:10:01.442Z,1.67
2022-10-11T17:12:29.565Z,2.30
2022-10-11T17:14:57.421Z,2.17
2022-10-11T17:17:25.278Z,2.10
2022-10-11T17:19:53.081Z,2.10
2022-10-11T17:22:22.263Z,2.07
2022-10-11T17:24:50.062Z,2.07
2022-10-11T17:27:17.885Z,1.83
2022-10-11T17:29:45.724Z,2.10
2022-10-11T17:32:13.598Z,1.73
2022-10-11T17:34:41.405Z,3.00
2022-10-11T17:37:10.056Z,2.37
2022-10-11T17:39:39.283Z,1.90
2022-10-11T17:42:07.541Z,1.97
2022-10-11T17:44:36.738Z,1.87
2022-10-11T17:47:04.809Z,2.30
2022-10-11T17:49:32.740Z,3.30
2022-10-11T17:52:00.545Z,2.20
2022-10-11T17:54:28.395Z,1.80
2022-10-11T17:56:57.596Z,2.10
2022-10-11T17:59:27.430Z,2.43
2022-10-11T18:01:55.617Z,1.87
2022-10-11T18:04:26.726Z,2.47
2022-10-11T18:06:54.787Z,2.13
2022-10-11T18:09:23.765Z,2.47
2022-10-11T18:11:52.104Z,2.13
2022-10-11T18:14:21.264Z,1.90
2022-10-11T18:16:49.210Z,2.30
2022-10-11T18:19:17.112Z,3.60
2022-10-11T18:21:45.050Z,2.60
2022-10-11T18:24:15.909Z,2.73
2022-10-11T18:26:44.359Z,2.00
2022-10-11T18:29:13.160Z,2.03
2022-10-11T18:31:42.913Z,2.20
2022-10-11T18:34:13.820Z,1.67
2022-10-11T18:36:41.751Z,2.47
2022-10-11T18:39:12.193Z,2.47
2022-10-11T18:41:42.033Z,2.20
2022-10-11T18:44:10.866Z,2.07
2022-10-11T18:46:38.721Z,2.50
2022-10-11T18:49:08.613Z,2.10
2022-10-11T18:51:38.088Z,1.60
2022-10-11T18:54:07.647Z,2.20
2022-10-11T18:56:37.183Z,2.30
2022-10-11T18:59:06.241Z,2.10
2022-10-11T19:01:36.195Z,1.97
2022-10-11T19:04:05.001Z,2.00
2022-10-11T19:06:36.186Z,2.17
2022-10-11T19:09:05.609Z,2.00
2022-10-11T19:11:34.146Z,2.03
2022-10-11T19:14:06.314Z,2.67
2022-10-11T19:16:37.459Z,2.50
2022-10-11T19:19:05.644Z,2.10
2022-10-11T19:21:35.106Z,1.90
2022-10-11T19:24:03.161Z,2.07
2022-10-11T19:26:33.590Z,2.27
2022-10-11T19:29:03.873Z,2.63
2022-10-11T19:31:32.868Z,2.17
2022-10-11T19:34:02.341Z,2.10
2022-10-11T19:36:35.525Z,1.87
2022-10-11T19:39:06.759Z,2.00
2022-10-11T19:41:34.665Z,2.40
2022-10-11T19:44:02.565Z,2.23
2022-10-11T19:49:21.392Z,2.20
2022-10-11T19:51:49.268Z,2.43
2022-10-11T19:54:18.703Z,2.20
2022-10-11T19:56:46.784Z,3.13
2022-10-11T19:59:15.465Z,2.40
2022-10-11T20:01:47.895Z,2.03
2022-10-11T20:04:46.953Z,2.10
2022-10-11T20:07:06.987Z,2.37
2022-10-11T20:09:36.630Z,1.73
2022-10-11T20:12:04.596Z,2.50
2022-10-11T20:14:32.446Z,1.97
2022-10-11T20:17:00.366Z,1.90
2022-10-11T20:19:31.676Z,2.17
2022-10-11T20:22:00.273Z,2.07
2022-10-11T20:24:32.716Z,2.03
2022-10-11T20:27:03.681Z,2.33
2022-10-11T20:29:31.620Z,2.70
2022-10-11T20:31:59.890Z,2.50
2022-10-11T20:34:28.623Z,2.37
2022-10-11T20:36:56.547Z,2.50
2022-10-11T20:39:24.691Z,2.20
2022-10-11T20:41:52.593Z,2.00
2022-10-11T20:44:21.817Z,2.67
2022-10-11T20:46:49.711Z,2.40
2022-10-11T20:49:19.760Z,2.30
2022-10-11T20:51:47.698Z,2.30
2022-10-11T20:54:15.795Z,2.63
2022-10-11T20:56:44.548Z,2.10
2022-10-11T20:59:12.433Z,2.13
2022-10-11T21:01:42.397Z,2.63
2022-10-11T21:04:18.363Z,2.30
2022-10-11T21:06:46.737Z,2.60
2022-10-11T21:09:16.654Z,2.30
2022-10-11T21:11:45.006Z,2.27
2022-10-11T21:14:12.966Z,2.47
2022-10-11T21:16:42.224Z,2.20
2022-10-11T21:19:14.938Z,2.73
2022-10-11T21:21:43.449Z,2.03
2022-10-11T21:24:11.349Z,2.17
2022-10-11T21:26:39.378Z,2.70
2022-10-11T21:29:08.329Z,2.20
2022-10-11T21:31:36.330Z,1.83
2022-10-11T21:34:07.261Z,2.57
2022-10-11T21:36:35.433Z,2.70
2022-10-11T21:39:03.662Z,2.20
2022-10-11T21:41:31.467Z,2.47
2022-10-11T21:43:59.675Z,2.43
2022-10-11T21:46:54.183Z,2.53
2022-10-11T21:49:19.164Z,2.67
2022-10-11T21:51:47.003Z,2.80
2022-10-11T21:54:14.798Z,2.70
2022-10-11T21:56:43.082Z,2.40
2022-10-11T21:59:12.578Z,2.23
2022-10-11T22:01:41.264Z,2.53
2022-10-11T22:04:09.323Z,2.20
2022-10-11T22:06:39.076Z,2.30
2022-10-11T22:09:08.204Z,2.63
2022-10-11T22:11:36.153Z,3.30
2022-10-11T22:14:04.615Z,2.23
2022-10-11T22:16:34.764Z,3.30
2022-10-11T22:19:02.745Z,2.50
2022-10-11T22:21:30.701Z,1.90
2022-10-11T22:23:59.994Z,2.30
2022-10-11T22:26:30.953Z,2.50
2022-10-11T22:28:59.409Z,2.33
2022-10-11T22:31:27.451Z,2.13
2022-10-11T22:33:56.068Z,2.40
2022-10-11T22:36:24.822Z,2.43
2022-10-11T22:38:53.471Z,2.47
2022-10-11T22:41:22.840Z,2.77
2022-10-11T22:43:50.741Z,2.70
2022-10-11T22:46:18.836Z,2.27
2022-10-11T22:48:46.692Z,2.40
2022-10-11T22:51:14.616Z,2.30
2022-10-11T22:53:42.423Z,2.47
2022-10-11T22:56:11.149Z,2.20
2022-10-11T22:58:40.333Z,2.40
2022-10-11T23:01:09.239Z,2.27
2022-10-11T23:03:37.225Z,2.10
2022-10-11T23:06:05.589Z,2.63
2022-10-11T23:08:33.608Z,2.17
2022-10-11T23:11:04.273Z,2.33
2022-10-11T23:13:32.161Z,2.53
2022-10-11T23:18:38.896Z,2.43
2022-10-11T23:21:07.694Z,2.80
2022-10-11T23:23:35.891Z,2.43
2022-10-11T23:26:05.915Z,2.30
2022-10-11T23:28:34.116Z,2.57
2022-10-11T23:31:07.435Z,2.20
2022-10-11T23:33:35.369Z,2.37
2022-10-11T23:36:03.392Z,2.13
2022-10-11T23:38:31.293Z,2.40
2022-10-11T23:40:59.396Z,2.10
2022-10-11T23:43:27.235Z,2.00
2022-10-11T23:45:55.862Z,2.33
2022-10-11T23:48:25.027Z,2.90
2022-10-11T23:50:52.882Z,2.00
2022-10-11T23:53:20.844Z,2.50
2022-10-11T23:55:48.786Z,2.50
2022-10-11T23:58:16.614Z,2.47
